<?xml version="1.0" encoding="UTF-8" standalone="no" ?>
<gpx xmlns="http://www.topografix.com/GPX/1/1" xmlns:xsi="http://www.w3.org/2001/XMLSchema-instance" xsi:schemaLocation="http://www.topografix.com/GPX/1/1 http://www.topografix.com/GPX/1/1/gpx.xsd" version="1.1" creator="VisuGPX - https://www.visugpx.com">
  <metadata>
    <name>CIRCUIT 354</name>
    <desc><![CDATA[PETIT CIRCUIT DE    4Kms  départ parking du domaine Ter Rijst.  
Heik Kruis  (PEPINGEN) beau temps ]]></desc>
  </metadata>
  <trk>
    <name><![CDATA[2017-09-26 16:22:27]]></name>
    <trkseg>
      <trkpt lat="50.72486" lon="4.08263">
        <ele>95.31</ele>
        <time>2017-09-26T13:15:37Z</time>
      </trkpt>
      <trkpt lat="50.72486" lon="4.08263">
        <ele>95.31</ele>
        <time>2017-09-26T13:15:38Z</time>
      </trkpt>
      <trkpt lat="50.72486" lon="4.08263">
        <ele>65.99</ele>
        <time>2017-09-26T13:15:41Z</time>
      </trkpt>
      <trkpt lat="50.72486" lon="4.08263">
        <ele>65.99</ele>
        <time>2017-09-26T13:15:43Z</time>
      </trkpt>
      <trkpt lat="50.72487" lon="4.08254">
        <ele>65.99</ele>
        <time>2017-09-26T13:16:01Z</time>
      </trkpt>
      <trkpt lat="50.72487" lon="4.08253">
        <ele>65.99</ele>
        <time>2017-09-26T13:16:23Z</time>
      </trkpt>
      <trkpt lat="50.72482" lon="4.08267">
        <ele>65.99</ele>
        <time>2017-09-26T13:16:39Z</time>
      </trkpt>
      <trkpt lat="50.72476" lon="4.08289">
        <ele>65.51</ele>
        <time>2017-09-26T13:16:54Z</time>
      </trkpt>
      <trkpt lat="50.72478" lon="4.08304">
        <ele>65.51</ele>
        <time>2017-09-26T13:17:10Z</time>
      </trkpt>
      <trkpt lat="50.72477" lon="4.08307">
        <ele>65.03</ele>
        <time>2017-09-26T13:17:28Z</time>
      </trkpt>
      <trkpt lat="50.72474" lon="4.08314">
        <ele>65.99</ele>
        <time>2017-09-26T13:17:45Z</time>
      </trkpt>
      <trkpt lat="50.72475" lon="4.08334">
        <ele>66.47</ele>
        <time>2017-09-26T13:17:58Z</time>
      </trkpt>
      <trkpt lat="50.72476" lon="4.08347">
        <ele>66.95</ele>
        <time>2017-09-26T13:18:04Z</time>
      </trkpt>
      <trkpt lat="50.72475" lon="4.08349">
        <ele>66.95</ele>
        <time>2017-09-26T13:18:05Z</time>
      </trkpt>
      <trkpt lat="50.72475" lon="4.08351">
        <ele>66.95</ele>
        <time>2017-09-26T13:18:06Z</time>
      </trkpt>
      <trkpt lat="50.72471" lon="4.08366">
        <ele>67.43</ele>
        <time>2017-09-26T13:18:20Z</time>
      </trkpt>
      <trkpt lat="50.72468" lon="4.084">
        <ele>67.43</ele>
        <time>2017-09-26T13:18:36Z</time>
      </trkpt>
      <trkpt lat="50.72467" lon="4.08434">
        <ele>68.39</ele>
        <time>2017-09-26T13:18:53Z</time>
      </trkpt>
      <trkpt lat="50.72469" lon="4.08455">
        <ele>68.87</ele>
        <time>2017-09-26T13:19:09Z</time>
      </trkpt>
      <trkpt lat="50.72469" lon="4.08456">
        <ele>68.87</ele>
        <time>2017-09-26T13:19:10Z</time>
      </trkpt>
      <trkpt lat="50.72468" lon="4.08456">
        <ele>68.87</ele>
        <time>2017-09-26T13:19:11Z</time>
      </trkpt>
      <trkpt lat="50.7246" lon="4.08455">
        <ele>68.87</ele>
        <time>2017-09-26T13:19:17Z</time>
      </trkpt>
      <trkpt lat="50.72439" lon="4.0845">
        <ele>68.87</ele>
        <time>2017-09-26T13:19:32Z</time>
      </trkpt>
      <trkpt lat="50.72421" lon="4.08437">
        <ele>68.87</ele>
        <time>2017-09-26T13:19:47Z</time>
      </trkpt>
      <trkpt lat="50.72405" lon="4.08421">
        <ele>67.43</ele>
        <time>2017-09-26T13:20:01Z</time>
      </trkpt>
      <trkpt lat="50.72404" lon="4.0842">
        <ele>67.43</ele>
        <time>2017-09-26T13:20:02Z</time>
      </trkpt>
      <trkpt lat="50.72403" lon="4.08418">
        <ele>67.43</ele>
        <time>2017-09-26T13:20:03Z</time>
      </trkpt>
      <trkpt lat="50.72393" lon="4.08396">
        <ele>66.95</ele>
        <time>2017-09-26T13:20:17Z</time>
      </trkpt>
      <trkpt lat="50.72383" lon="4.08376">
        <ele>66.47</ele>
        <time>2017-09-26T13:20:31Z</time>
      </trkpt>
      <trkpt lat="50.7238" lon="4.0837">
        <ele>65.99</ele>
        <time>2017-09-26T13:20:35Z</time>
      </trkpt>
      <trkpt lat="50.72374" lon="4.08361">
        <ele>65.51</ele>
        <time>2017-09-26T13:20:47Z</time>
      </trkpt>
      <trkpt lat="50.72367" lon="4.0835">
        <ele>65.51</ele>
        <time>2017-09-26T13:21:03Z</time>
      </trkpt>
      <trkpt lat="50.72362" lon="4.08329">
        <ele>65.03</ele>
        <time>2017-09-26T13:21:16Z</time>
      </trkpt>
      <trkpt lat="50.72357" lon="4.08302">
        <ele>64.07</ele>
        <time>2017-09-26T13:21:32Z</time>
      </trkpt>
      <trkpt lat="50.72354" lon="4.0828">
        <ele>63.58</ele>
        <time>2017-09-26T13:21:46Z</time>
      </trkpt>
      <trkpt lat="50.7235" lon="4.08254">
        <ele>62.14</ele>
        <time>2017-09-26T13:22:01Z</time>
      </trkpt>
      <trkpt lat="50.72343" lon="4.08248">
        <ele>61.66</ele>
        <time>2017-09-26T13:22:08Z</time>
      </trkpt>
      <trkpt lat="50.72336" lon="4.0825">
        <ele>61.66</ele>
        <time>2017-09-26T13:22:14Z</time>
      </trkpt>
      <trkpt lat="50.72327" lon="4.08256">
        <ele>63.1</ele>
        <time>2017-09-26T13:22:24Z</time>
      </trkpt>
      <trkpt lat="50.72319" lon="4.0826">
        <ele>63.58</ele>
        <time>2017-09-26T13:22:33Z</time>
      </trkpt>
      <trkpt lat="50.72318" lon="4.0826">
        <ele>64.07</ele>
        <time>2017-09-26T13:22:34Z</time>
      </trkpt>
      <trkpt lat="50.72302" lon="4.08259">
        <ele>64.07</ele>
        <time>2017-09-26T13:22:48Z</time>
      </trkpt>
      <trkpt lat="50.72279" lon="4.08266">
        <ele>63.58</ele>
        <time>2017-09-26T13:23:05Z</time>
      </trkpt>
      <trkpt lat="50.72263" lon="4.08294">
        <ele>63.58</ele>
        <time>2017-09-26T13:23:24Z</time>
      </trkpt>
      <trkpt lat="50.72253" lon="4.08326">
        <ele>64.07</ele>
        <time>2017-09-26T13:23:41Z</time>
      </trkpt>
      <trkpt lat="50.72243" lon="4.08349">
        <ele>63.58</ele>
        <time>2017-09-26T13:23:57Z</time>
      </trkpt>
      <trkpt lat="50.72225" lon="4.08373">
        <ele>63.58</ele>
        <time>2017-09-26T13:24:16Z</time>
      </trkpt>
      <trkpt lat="50.72209" lon="4.08386">
        <ele>63.58</ele>
        <time>2017-09-26T13:24:31Z</time>
      </trkpt>
      <trkpt lat="50.72207" lon="4.08387">
        <ele>63.58</ele>
        <time>2017-09-26T13:24:33Z</time>
      </trkpt>
      <trkpt lat="50.72206" lon="4.08386">
        <ele>63.58</ele>
        <time>2017-09-26T13:24:34Z</time>
      </trkpt>
      <trkpt lat="50.72199" lon="4.08383">
        <ele>62.14</ele>
        <time>2017-09-26T13:24:39Z</time>
      </trkpt>
      <trkpt lat="50.7218" lon="4.0837">
        <ele>61.66</ele>
        <time>2017-09-26T13:24:56Z</time>
      </trkpt>
      <trkpt lat="50.72162" lon="4.08363">
        <ele>61.18</ele>
        <time>2017-09-26T13:25:13Z</time>
      </trkpt>
      <trkpt lat="50.72152" lon="4.08386">
        <ele>60.7</ele>
        <time>2017-09-26T13:25:29Z</time>
      </trkpt>
      <trkpt lat="50.72139" lon="4.08418">
        <ele>59.74</ele>
        <time>2017-09-26T13:25:48Z</time>
      </trkpt>
      <trkpt lat="50.72129" lon="4.08444">
        <ele>58.3</ele>
        <time>2017-09-26T13:26:04Z</time>
      </trkpt>
      <trkpt lat="50.72118" lon="4.08476">
        <ele>57.34</ele>
        <time>2017-09-26T13:26:23Z</time>
      </trkpt>
      <trkpt lat="50.72109" lon="4.08501">
        <ele>56.86</ele>
        <time>2017-09-26T13:26:38Z</time>
      </trkpt>
      <trkpt lat="50.72101" lon="4.08527">
        <ele>56.37</ele>
        <time>2017-09-26T13:26:54Z</time>
      </trkpt>
      <trkpt lat="50.72098" lon="4.08534">
        <ele>55.89</ele>
        <time>2017-09-26T13:26:58Z</time>
      </trkpt>
      <trkpt lat="50.72098" lon="4.08536">
        <ele>55.89</ele>
        <time>2017-09-26T13:26:59Z</time>
      </trkpt>
      <trkpt lat="50.72094" lon="4.0854">
        <ele>55.89</ele>
        <time>2017-09-26T13:27:04Z</time>
      </trkpt>
      <trkpt lat="50.72093" lon="4.08539">
        <ele>55.89</ele>
        <time>2017-09-26T13:27:05Z</time>
      </trkpt>
      <trkpt lat="50.72078" lon="4.08531">
        <ele>55.41</ele>
        <time>2017-09-26T13:27:18Z</time>
      </trkpt>
      <trkpt lat="50.72063" lon="4.08525">
        <ele>54.93</ele>
        <time>2017-09-26T13:27:30Z</time>
      </trkpt>
      <trkpt lat="50.72047" lon="4.08511">
        <ele>54.45</ele>
        <time>2017-09-26T13:27:43Z</time>
      </trkpt>
      <trkpt lat="50.72046" lon="4.0851">
        <ele>54.45</ele>
        <time>2017-09-26T13:27:44Z</time>
      </trkpt>
      <trkpt lat="50.72038" lon="4.08498">
        <ele>53.97</ele>
        <time>2017-09-26T13:27:57Z</time>
      </trkpt>
      <trkpt lat="50.7203" lon="4.08493">
        <ele>53.97</ele>
        <time>2017-09-26T13:28:01Z</time>
      </trkpt>
      <trkpt lat="50.72019" lon="4.08476">
        <ele>53.97</ele>
        <time>2017-09-26T13:28:12Z</time>
      </trkpt>
      <trkpt lat="50.72008" lon="4.08455">
        <ele>53.97</ele>
        <time>2017-09-26T13:28:27Z</time>
      </trkpt>
      <trkpt lat="50.72007" lon="4.08454">
        <ele>53.97</ele>
        <time>2017-09-26T13:28:28Z</time>
      </trkpt>
      <trkpt lat="50.72003" lon="4.08447">
        <ele>53.97</ele>
        <time>2017-09-26T13:28:32Z</time>
      </trkpt>
      <trkpt lat="50.71994" lon="4.08438">
        <ele>53.97</ele>
        <time>2017-09-26T13:28:40Z</time>
      </trkpt>
      <trkpt lat="50.71992" lon="4.08435">
        <ele>53.97</ele>
        <time>2017-09-26T13:28:42Z</time>
      </trkpt>
      <trkpt lat="50.71992" lon="4.08434">
        <ele>53.97</ele>
        <time>2017-09-26T13:28:43Z</time>
      </trkpt>
      <trkpt lat="50.71983" lon="4.0842">
        <ele>53.01</ele>
        <time>2017-09-26T13:28:55Z</time>
      </trkpt>
      <trkpt lat="50.71975" lon="4.08397">
        <ele>53.01</ele>
        <time>2017-09-26T13:29:09Z</time>
      </trkpt>
      <trkpt lat="50.71967" lon="4.08366">
        <ele>52.53</ele>
        <time>2017-09-26T13:29:25Z</time>
      </trkpt>
      <trkpt lat="50.71963" lon="4.0835">
        <ele>52.53</ele>
        <time>2017-09-26T13:29:35Z</time>
      </trkpt>
      <trkpt lat="50.71957" lon="4.08349">
        <ele>53.97</ele>
        <time>2017-09-26T13:29:41Z</time>
      </trkpt>
      <trkpt lat="50.71939" lon="4.08357">
        <ele>54.45</ele>
        <time>2017-09-26T13:29:56Z</time>
      </trkpt>
      <trkpt lat="50.71927" lon="4.08358">
        <ele>54.45</ele>
        <time>2017-09-26T13:30:09Z</time>
      </trkpt>
      <trkpt lat="50.71916" lon="4.08361">
        <ele>54.45</ele>
        <time>2017-09-26T13:30:22Z</time>
      </trkpt>
      <trkpt lat="50.71903" lon="4.08366">
        <ele>54.45</ele>
        <time>2017-09-26T13:30:34Z</time>
      </trkpt>
      <trkpt lat="50.719" lon="4.08367">
        <ele>54.45</ele>
        <time>2017-09-26T13:30:36Z</time>
      </trkpt>
      <trkpt lat="50.71896" lon="4.08367">
        <ele>54.45</ele>
        <time>2017-09-26T13:30:38Z</time>
      </trkpt>
      <trkpt lat="50.71892" lon="4.08369">
        <ele>54.45</ele>
        <time>2017-09-26T13:30:41Z</time>
      </trkpt>
      <trkpt lat="50.71871" lon="4.08371">
        <ele>55.41</ele>
        <time>2017-09-26T13:30:54Z</time>
      </trkpt>
      <trkpt lat="50.71856" lon="4.08354">
        <ele>56.37</ele>
        <time>2017-09-26T13:31:06Z</time>
      </trkpt>
      <trkpt lat="50.71845" lon="4.0833">
        <ele>58.3</ele>
        <time>2017-09-26T13:31:22Z</time>
      </trkpt>
      <trkpt lat="50.71843" lon="4.08326">
        <ele>58.78</ele>
        <time>2017-09-26T13:31:25Z</time>
      </trkpt>
      <trkpt lat="50.71833" lon="4.08311">
        <ele>59.26</ele>
        <time>2017-09-26T13:31:38Z</time>
      </trkpt>
      <trkpt lat="50.71821" lon="4.08293">
        <ele>60.22</ele>
        <time>2017-09-26T13:31:51Z</time>
      </trkpt>
      <trkpt lat="50.71808" lon="4.0827">
        <ele>60.7</ele>
        <time>2017-09-26T13:32:07Z</time>
      </trkpt>
      <trkpt lat="50.71799" lon="4.08253">
        <ele>61.18</ele>
        <time>2017-09-26T13:32:23Z</time>
      </trkpt>
      <trkpt lat="50.71801" lon="4.08244">
        <ele>61.18</ele>
        <time>2017-09-26T13:32:28Z</time>
      </trkpt>
      <trkpt lat="50.71805" lon="4.08212">
        <ele>61.18</ele>
        <time>2017-09-26T13:32:42Z</time>
      </trkpt>
      <trkpt lat="50.71805" lon="4.08193">
        <ele>61.18</ele>
        <time>2017-09-26T13:32:51Z</time>
      </trkpt>
      <trkpt lat="50.71805" lon="4.0819">
        <ele>61.18</ele>
        <time>2017-09-26T13:32:52Z</time>
      </trkpt>
      <trkpt lat="50.71801" lon="4.08184">
        <ele>61.18</ele>
        <time>2017-09-26T13:32:57Z</time>
      </trkpt>
      <trkpt lat="50.718" lon="4.08183">
        <ele>60.7</ele>
        <time>2017-09-26T13:32:58Z</time>
      </trkpt>
      <trkpt lat="50.71799" lon="4.08183">
        <ele>60.7</ele>
        <time>2017-09-26T13:32:59Z</time>
      </trkpt>
      <trkpt lat="50.71798" lon="4.08182">
        <ele>61.18</ele>
        <time>2017-09-26T13:33:00Z</time>
      </trkpt>
      <trkpt lat="50.71796" lon="4.08182">
        <ele>60.7</ele>
        <time>2017-09-26T13:33:01Z</time>
      </trkpt>
      <trkpt lat="50.71795" lon="4.08182">
        <ele>60.7</ele>
        <time>2017-09-26T13:33:02Z</time>
      </trkpt>
      <trkpt lat="50.71783" lon="4.0818">
        <ele>60.7</ele>
        <time>2017-09-26T13:33:14Z</time>
      </trkpt>
      <trkpt lat="50.71775" lon="4.08175">
        <ele>61.18</ele>
        <time>2017-09-26T13:33:24Z</time>
      </trkpt>
      <trkpt lat="50.71774" lon="4.08175">
        <ele>61.18</ele>
        <time>2017-09-26T13:33:25Z</time>
      </trkpt>
      <trkpt lat="50.7177" lon="4.08173">
        <ele>61.66</ele>
        <time>2017-09-26T13:33:29Z</time>
      </trkpt>
      <trkpt lat="50.71768" lon="4.08173">
        <ele>61.66</ele>
        <time>2017-09-26T13:33:30Z</time>
      </trkpt>
      <trkpt lat="50.71745" lon="4.08166">
        <ele>62.14</ele>
        <time>2017-09-26T13:33:45Z</time>
      </trkpt>
      <trkpt lat="50.7173" lon="4.08154">
        <ele>62.14</ele>
        <time>2017-09-26T13:33:57Z</time>
      </trkpt>
      <trkpt lat="50.71732" lon="4.08145">
        <ele>62.14</ele>
        <time>2017-09-26T13:34:02Z</time>
      </trkpt>
      <trkpt lat="50.71739" lon="4.08121">
        <ele>62.14</ele>
        <time>2017-09-26T13:34:16Z</time>
      </trkpt>
      <trkpt lat="50.71741" lon="4.08111">
        <ele>61.18</ele>
        <time>2017-09-26T13:34:30Z</time>
      </trkpt>
      <trkpt lat="50.71743" lon="4.08115">
        <ele>61.18</ele>
        <time>2017-09-26T13:34:47Z</time>
      </trkpt>
      <trkpt lat="50.71743" lon="4.08119">
        <ele>61.18</ele>
        <time>2017-09-26T13:35:06Z</time>
      </trkpt>
      <trkpt lat="50.71745" lon="4.08116">
        <ele>61.18</ele>
        <time>2017-09-26T13:35:21Z</time>
      </trkpt>
      <trkpt lat="50.71746" lon="4.08116">
        <ele>61.18</ele>
        <time>2017-09-26T13:35:37Z</time>
      </trkpt>
      <trkpt lat="50.71746" lon="4.08117">
        <ele>60.22</ele>
        <time>2017-09-26T13:35:45Z</time>
      </trkpt>
      <trkpt lat="50.71747" lon="4.08116">
        <ele>61.66</ele>
        <time>2017-09-26T13:35:48Z</time>
      </trkpt>
      <trkpt lat="50.71745" lon="4.08109">
        <ele>57.34</ele>
        <time>2017-09-26T13:35:59Z</time>
      </trkpt>
      <trkpt lat="50.71746" lon="4.08109">
        <ele>63.58</ele>
        <time>2017-09-26T13:36:00Z</time>
      </trkpt>
      <trkpt lat="50.71746" lon="4.08108">
        <ele>58.3</ele>
        <time>2017-09-26T13:36:01Z</time>
      </trkpt>
      <trkpt lat="50.71746" lon="4.08107">
        <ele>64.07</ele>
        <time>2017-09-26T13:36:03Z</time>
      </trkpt>
      <trkpt lat="50.71746" lon="4.08107">
        <ele>55.41</ele>
        <time>2017-09-26T13:36:04Z</time>
      </trkpt>
      <trkpt lat="50.71747" lon="4.08108">
        <ele>61.66</ele>
        <time>2017-09-26T13:36:05Z</time>
      </trkpt>
      <trkpt lat="50.71748" lon="4.08109">
        <ele>57.34</ele>
        <time>2017-09-26T13:36:10Z</time>
      </trkpt>
      <trkpt lat="50.71749" lon="4.08109">
        <ele>63.1</ele>
        <time>2017-09-26T13:36:11Z</time>
      </trkpt>
      <trkpt lat="50.71749" lon="4.0811">
        <ele>63.1</ele>
        <time>2017-09-26T13:36:12Z</time>
      </trkpt>
      <trkpt lat="50.71749" lon="4.0811">
        <ele>61.66</ele>
        <time>2017-09-26T13:36:14Z</time>
      </trkpt>
      <trkpt lat="50.71752" lon="4.08107">
        <ele>54.45</ele>
        <time>2017-09-26T13:36:27Z</time>
      </trkpt>
      <trkpt lat="50.71752" lon="4.08105">
        <ele>66.47</ele>
        <time>2017-09-26T13:36:28Z</time>
      </trkpt>
      <trkpt lat="50.71752" lon="4.08105">
        <ele>61.18</ele>
        <time>2017-09-26T13:36:29Z</time>
      </trkpt>
      <trkpt lat="50.71745" lon="4.08079">
        <ele>60.7</ele>
        <time>2017-09-26T13:36:49Z</time>
      </trkpt>
      <trkpt lat="50.71747" lon="4.0806">
        <ele>60.7</ele>
        <time>2017-09-26T13:37:08Z</time>
      </trkpt>
      <trkpt lat="50.71751" lon="4.08041">
        <ele>62.14</ele>
        <time>2017-09-26T13:37:21Z</time>
      </trkpt>
      <trkpt lat="50.71751" lon="4.08037">
        <ele>60.7</ele>
        <time>2017-09-26T13:37:23Z</time>
      </trkpt>
      <trkpt lat="50.71751" lon="4.08015">
        <ele>60.22</ele>
        <time>2017-09-26T13:37:37Z</time>
      </trkpt>
      <trkpt lat="50.71737" lon="4.07998">
        <ele>60.7</ele>
        <time>2017-09-26T13:37:50Z</time>
      </trkpt>
      <trkpt lat="50.71735" lon="4.07996">
        <ele>62.14</ele>
        <time>2017-09-26T13:37:52Z</time>
      </trkpt>
      <trkpt lat="50.71729" lon="4.0799">
        <ele>62.14</ele>
        <time>2017-09-26T13:37:59Z</time>
      </trkpt>
      <trkpt lat="50.71707" lon="4.07982">
        <ele>61.18</ele>
        <time>2017-09-26T13:38:19Z</time>
      </trkpt>
      <trkpt lat="50.71706" lon="4.07981">
        <ele>61.18</ele>
        <time>2017-09-26T13:38:20Z</time>
      </trkpt>
      <trkpt lat="50.71685" lon="4.07967">
        <ele>61.18</ele>
        <time>2017-09-26T13:38:40Z</time>
      </trkpt>
      <trkpt lat="50.71668" lon="4.07954">
        <ele>61.18</ele>
        <time>2017-09-26T13:39:03Z</time>
      </trkpt>
      <trkpt lat="50.71669" lon="4.07957">
        <ele>62.62</ele>
        <time>2017-09-26T13:39:08Z</time>
      </trkpt>
      <trkpt lat="50.71663" lon="4.07969">
        <ele>62.14</ele>
        <time>2017-09-26T13:39:34Z</time>
      </trkpt>
      <trkpt lat="50.71663" lon="4.07974">
        <ele>63.58</ele>
        <time>2017-09-26T13:39:36Z</time>
      </trkpt>
      <trkpt lat="50.71657" lon="4.08004">
        <ele>64.07</ele>
        <time>2017-09-26T13:39:55Z</time>
      </trkpt>
      <trkpt lat="50.71649" lon="4.08015">
        <ele>62.62</ele>
        <time>2017-09-26T13:40:05Z</time>
      </trkpt>
      <trkpt lat="50.71642" lon="4.08024">
        <ele>64.07</ele>
        <time>2017-09-26T13:40:11Z</time>
      </trkpt>
      <trkpt lat="50.71625" lon="4.08046">
        <ele>62.62</ele>
        <time>2017-09-26T13:40:25Z</time>
      </trkpt>
      <trkpt lat="50.71623" lon="4.08049">
        <ele>65.03</ele>
        <time>2017-09-26T13:40:27Z</time>
      </trkpt>
      <trkpt lat="50.7162" lon="4.08052">
        <ele>63.58</ele>
        <time>2017-09-26T13:40:30Z</time>
      </trkpt>
      <trkpt lat="50.71609" lon="4.08066">
        <ele>65.03</ele>
        <time>2017-09-26T13:40:42Z</time>
      </trkpt>
      <trkpt lat="50.71592" lon="4.08086">
        <ele>64.55</ele>
        <time>2017-09-26T13:41:03Z</time>
      </trkpt>
      <trkpt lat="50.71568" lon="4.08113">
        <ele>64.07</ele>
        <time>2017-09-26T13:41:28Z</time>
      </trkpt>
      <trkpt lat="50.71567" lon="4.08116">
        <ele>65.03</ele>
        <time>2017-09-26T13:41:30Z</time>
      </trkpt>
      <trkpt lat="50.71565" lon="4.08119">
        <ele>64.07</ele>
        <time>2017-09-26T13:41:32Z</time>
      </trkpt>
      <trkpt lat="50.7156" lon="4.08125">
        <ele>65.51</ele>
        <time>2017-09-26T13:41:38Z</time>
      </trkpt>
      <trkpt lat="50.71542" lon="4.08144">
        <ele>65.99</ele>
        <time>2017-09-26T13:41:55Z</time>
      </trkpt>
      <trkpt lat="50.71538" lon="4.08147">
        <ele>64.07</ele>
        <time>2017-09-26T13:41:58Z</time>
      </trkpt>
      <trkpt lat="50.71518" lon="4.08159">
        <ele>65.99</ele>
        <time>2017-09-26T13:42:20Z</time>
      </trkpt>
      <trkpt lat="50.71507" lon="4.08184">
        <ele>65.51</ele>
        <time>2017-09-26T13:42:47Z</time>
      </trkpt>
      <trkpt lat="50.71486" lon="4.08206">
        <ele>66.47</ele>
        <time>2017-09-26T13:43:05Z</time>
      </trkpt>
      <trkpt lat="50.71464" lon="4.08227">
        <ele>66.47</ele>
        <time>2017-09-26T13:43:27Z</time>
      </trkpt>
      <trkpt lat="50.71456" lon="4.08234">
        <ele>65.51</ele>
        <time>2017-09-26T13:43:35Z</time>
      </trkpt>
      <trkpt lat="50.71438" lon="4.08258">
        <ele>65.51</ele>
        <time>2017-09-26T13:44:01Z</time>
      </trkpt>
      <trkpt lat="50.71442" lon="4.08257">
        <ele>66.47</ele>
        <time>2017-09-26T13:44:10Z</time>
      </trkpt>
      <trkpt lat="50.71442" lon="4.08257">
        <ele>65.03</ele>
        <time>2017-09-26T13:44:12Z</time>
      </trkpt>
      <trkpt lat="50.71443" lon="4.0826">
        <ele>66.47</ele>
        <time>2017-09-26T13:44:17Z</time>
      </trkpt>
      <trkpt lat="50.71445" lon="4.08264">
        <ele>65.03</ele>
        <time>2017-09-26T13:44:22Z</time>
      </trkpt>
      <trkpt lat="50.71446" lon="4.08266">
        <ele>66.47</ele>
        <time>2017-09-26T13:44:24Z</time>
      </trkpt>
      <trkpt lat="50.71459" lon="4.08286">
        <ele>66.47</ele>
        <time>2017-09-26T13:44:42Z</time>
      </trkpt>
      <trkpt lat="50.71473" lon="4.08316">
        <ele>66.95</ele>
        <time>2017-09-26T13:45:02Z</time>
      </trkpt>
      <trkpt lat="50.71476" lon="4.08318">
        <ele>65.99</ele>
        <time>2017-09-26T13:45:05Z</time>
      </trkpt>
      <trkpt lat="50.71482" lon="4.08327">
        <ele>65.51</ele>
        <time>2017-09-26T13:45:14Z</time>
      </trkpt>
      <trkpt lat="50.71483" lon="4.08328">
        <ele>67.43</ele>
        <time>2017-09-26T13:45:16Z</time>
      </trkpt>
      <trkpt lat="50.71485" lon="4.08329">
        <ele>66.47</ele>
        <time>2017-09-26T13:45:18Z</time>
      </trkpt>
      <trkpt lat="50.71501" lon="4.08349">
        <ele>67.43</ele>
        <time>2017-09-26T13:45:37Z</time>
      </trkpt>
      <trkpt lat="50.71524" lon="4.08382">
        <ele>66.95</ele>
        <time>2017-09-26T13:45:56Z</time>
      </trkpt>
      <trkpt lat="50.71534" lon="4.08398">
        <ele>67.43</ele>
        <time>2017-09-26T13:46:14Z</time>
      </trkpt>
      <trkpt lat="50.71538" lon="4.08403">
        <ele>65.99</ele>
        <time>2017-09-26T13:46:21Z</time>
      </trkpt>
      <trkpt lat="50.7155" lon="4.08415">
        <ele>67.43</ele>
        <time>2017-09-26T13:46:30Z</time>
      </trkpt>
      <trkpt lat="50.71565" lon="4.08435">
        <ele>65.99</ele>
        <time>2017-09-26T13:46:42Z</time>
      </trkpt>
      <trkpt lat="50.71581" lon="4.08454">
        <ele>66.95</ele>
        <time>2017-09-26T13:46:56Z</time>
      </trkpt>
      <trkpt lat="50.71585" lon="4.0846">
        <ele>65.51</ele>
        <time>2017-09-26T13:47:01Z</time>
      </trkpt>
      <trkpt lat="50.716" lon="4.08481">
        <ele>66.95</ele>
        <time>2017-09-26T13:47:18Z</time>
      </trkpt>
      <trkpt lat="50.71601" lon="4.08487">
        <ele>65.51</ele>
        <time>2017-09-26T13:47:22Z</time>
      </trkpt>
      <trkpt lat="50.71609" lon="4.08514">
        <ele>64.55</ele>
        <time>2017-09-26T13:47:43Z</time>
      </trkpt>
      <trkpt lat="50.71611" lon="4.08516">
        <ele>64.07</ele>
        <time>2017-09-26T13:47:47Z</time>
      </trkpt>
      <trkpt lat="50.71614" lon="4.08521">
        <ele>64.07</ele>
        <time>2017-09-26T13:47:52Z</time>
      </trkpt>
      <trkpt lat="50.71615" lon="4.08523">
        <ele>65.03</ele>
        <time>2017-09-26T13:47:54Z</time>
      </trkpt>
      <trkpt lat="50.71633" lon="4.08553">
        <ele>64.55</ele>
        <time>2017-09-26T13:48:14Z</time>
      </trkpt>
      <trkpt lat="50.71648" lon="4.08574">
        <ele>62.62</ele>
        <time>2017-09-26T13:48:33Z</time>
      </trkpt>
      <trkpt lat="50.71652" lon="4.08578">
        <ele>62.14</ele>
        <time>2017-09-26T13:48:40Z</time>
      </trkpt>
      <trkpt lat="50.71667" lon="4.08595">
        <ele>60.7</ele>
        <time>2017-09-26T13:48:55Z</time>
      </trkpt>
      <trkpt lat="50.71668" lon="4.08595">
        <ele>60.7</ele>
        <time>2017-09-26T13:48:56Z</time>
      </trkpt>
      <trkpt lat="50.71675" lon="4.08606">
        <ele>62.62</ele>
        <time>2017-09-26T13:49:06Z</time>
      </trkpt>
      <trkpt lat="50.71682" lon="4.08612">
        <ele>60.7</ele>
        <time>2017-09-26T13:49:09Z</time>
      </trkpt>
      <trkpt lat="50.71685" lon="4.08615">
        <ele>62.14</ele>
        <time>2017-09-26T13:49:11Z</time>
      </trkpt>
      <trkpt lat="50.71692" lon="4.08621">
        <ele>60.7</ele>
        <time>2017-09-26T13:49:15Z</time>
      </trkpt>
      <trkpt lat="50.71696" lon="4.08626">
        <ele>62.14</ele>
        <time>2017-09-26T13:49:20Z</time>
      </trkpt>
      <trkpt lat="50.71717" lon="4.08651">
        <ele>62.62</ele>
        <time>2017-09-26T13:49:35Z</time>
      </trkpt>
      <trkpt lat="50.71729" lon="4.08664">
        <ele>62.62</ele>
        <time>2017-09-26T13:49:48Z</time>
      </trkpt>
      <trkpt lat="50.71751" lon="4.08692">
        <ele>63.58</ele>
        <time>2017-09-26T13:50:08Z</time>
      </trkpt>
      <trkpt lat="50.71777" lon="4.08723">
        <ele>65.03</ele>
        <time>2017-09-26T13:50:31Z</time>
      </trkpt>
      <trkpt lat="50.71798" lon="4.08743">
        <ele>65.99</ele>
        <time>2017-09-26T13:50:49Z</time>
      </trkpt>
      <trkpt lat="50.71804" lon="4.08748">
        <ele>65.99</ele>
        <time>2017-09-26T13:51:13Z</time>
      </trkpt>
      <trkpt lat="50.71813" lon="4.08769">
        <ele>66.47</ele>
        <time>2017-09-26T13:51:39Z</time>
      </trkpt>
      <trkpt lat="50.71821" lon="4.08777">
        <ele>66.95</ele>
        <time>2017-09-26T13:52:01Z</time>
      </trkpt>
      <trkpt lat="50.71819" lon="4.0878">
        <ele>66.95</ele>
        <time>2017-09-26T13:52:21Z</time>
      </trkpt>
      <trkpt lat="50.71826" lon="4.08779">
        <ele>66.95</ele>
        <time>2017-09-26T13:52:42Z</time>
      </trkpt>
      <trkpt lat="50.7183" lon="4.08778">
        <ele>66.95</ele>
        <time>2017-09-26T13:53:04Z</time>
      </trkpt>
      <trkpt lat="50.71845" lon="4.08807">
        <ele>67.91</ele>
        <time>2017-09-26T13:53:25Z</time>
      </trkpt>
      <trkpt lat="50.71851" lon="4.08824">
        <ele>68.87</ele>
        <time>2017-09-26T13:53:47Z</time>
      </trkpt>
      <trkpt lat="50.7187" lon="4.08841">
        <ele>69.83</ele>
        <time>2017-09-26T13:54:07Z</time>
      </trkpt>
      <trkpt lat="50.71887" lon="4.08864">
        <ele>69.35</ele>
        <time>2017-09-26T13:54:29Z</time>
      </trkpt>
      <trkpt lat="50.71906" lon="4.08892">
        <ele>70.31</ele>
        <time>2017-09-26T13:54:50Z</time>
      </trkpt>
      <trkpt lat="50.71926" lon="4.08921">
        <ele>71.27</ele>
        <time>2017-09-26T13:55:11Z</time>
      </trkpt>
      <trkpt lat="50.71935" lon="4.08929">
        <ele>71.27</ele>
        <time>2017-09-26T13:55:18Z</time>
      </trkpt>
      <trkpt lat="50.71957" lon="4.08958">
        <ele>71.76</ele>
        <time>2017-09-26T13:55:41Z</time>
      </trkpt>
      <trkpt lat="50.71979" lon="4.08981">
        <ele>72.24</ele>
        <time>2017-09-26T13:56:02Z</time>
      </trkpt>
      <trkpt lat="50.72001" lon="4.09014">
        <ele>73.2</ele>
        <time>2017-09-26T13:56:26Z</time>
      </trkpt>
      <trkpt lat="50.72027" lon="4.09045">
        <ele>73.2</ele>
        <time>2017-09-26T13:56:52Z</time>
      </trkpt>
      <trkpt lat="50.72042" lon="4.09071">
        <ele>73.68</ele>
        <time>2017-09-26T13:57:13Z</time>
      </trkpt>
      <trkpt lat="50.72064" lon="4.09101">
        <ele>73.68</ele>
        <time>2017-09-26T13:57:36Z</time>
      </trkpt>
      <trkpt lat="50.72064" lon="4.09105">
        <ele>73.68</ele>
        <time>2017-09-26T13:57:52Z</time>
      </trkpt>
      <trkpt lat="50.72064" lon="4.09107">
        <ele>73.68</ele>
        <time>2017-09-26T13:58:08Z</time>
      </trkpt>
      <trkpt lat="50.72064" lon="4.0911">
        <ele>73.68</ele>
        <time>2017-09-26T13:58:27Z</time>
      </trkpt>
      <trkpt lat="50.72068" lon="4.09111">
        <ele>73.68</ele>
        <time>2017-09-26T13:58:49Z</time>
      </trkpt>
      <trkpt lat="50.72066" lon="4.09114">
        <ele>73.68</ele>
        <time>2017-09-26T13:59:04Z</time>
      </trkpt>
      <trkpt lat="50.72067" lon="4.09116">
        <ele>73.68</ele>
        <time>2017-09-26T13:59:27Z</time>
      </trkpt>
      <trkpt lat="50.72068" lon="4.09112">
        <ele>73.68</ele>
        <time>2017-09-26T13:59:47Z</time>
      </trkpt>
      <trkpt lat="50.72068" lon="4.09106">
        <ele>73.68</ele>
        <time>2017-09-26T14:00:05Z</time>
      </trkpt>
      <trkpt lat="50.72071" lon="4.09104">
        <ele>73.68</ele>
        <time>2017-09-26T14:00:26Z</time>
      </trkpt>
      <trkpt lat="50.72071" lon="4.09107">
        <ele>73.68</ele>
        <time>2017-09-26T14:00:42Z</time>
      </trkpt>
      <trkpt lat="50.72073" lon="4.09111">
        <ele>73.68</ele>
        <time>2017-09-26T14:01:01Z</time>
      </trkpt>
      <trkpt lat="50.72093" lon="4.09128">
        <ele>74.16</ele>
        <time>2017-09-26T14:01:24Z</time>
      </trkpt>
      <trkpt lat="50.72092" lon="4.09136">
        <ele>74.16</ele>
        <time>2017-09-26T14:01:48Z</time>
      </trkpt>
      <trkpt lat="50.7211" lon="4.09162">
        <ele>73.2</ele>
        <time>2017-09-26T14:02:12Z</time>
      </trkpt>
      <trkpt lat="50.72133" lon="4.09188">
        <ele>73.2</ele>
        <time>2017-09-26T14:02:39Z</time>
      </trkpt>
      <trkpt lat="50.72153" lon="4.09217">
        <ele>73.2</ele>
        <time>2017-09-26T14:03:03Z</time>
      </trkpt>
      <trkpt lat="50.72159" lon="4.09228">
        <ele>73.2</ele>
        <time>2017-09-26T14:03:14Z</time>
      </trkpt>
      <trkpt lat="50.72183" lon="4.09256">
        <ele>73.2</ele>
        <time>2017-09-26T14:03:40Z</time>
      </trkpt>
      <trkpt lat="50.722" lon="4.0928">
        <ele>74.64</ele>
        <time>2017-09-26T14:04:03Z</time>
      </trkpt>
      <trkpt lat="50.72205" lon="4.0928">
        <ele>74.16</ele>
        <time>2017-09-26T14:04:25Z</time>
      </trkpt>
      <trkpt lat="50.72209" lon="4.09276">
        <ele>74.16</ele>
        <time>2017-09-26T14:04:33Z</time>
      </trkpt>
      <trkpt lat="50.72212" lon="4.09272">
        <ele>73.2</ele>
        <time>2017-09-26T14:04:37Z</time>
      </trkpt>
      <trkpt lat="50.7223" lon="4.09251">
        <ele>72.72</ele>
        <time>2017-09-26T14:04:56Z</time>
      </trkpt>
      <trkpt lat="50.72245" lon="4.09232">
        <ele>72.24</ele>
        <time>2017-09-26T14:05:14Z</time>
      </trkpt>
      <trkpt lat="50.72261" lon="4.09209">
        <ele>71.27</ele>
        <time>2017-09-26T14:05:32Z</time>
      </trkpt>
      <trkpt lat="50.72262" lon="4.09209">
        <ele>70.79</ele>
        <time>2017-09-26T14:05:33Z</time>
      </trkpt>
      <trkpt lat="50.72286" lon="4.09183">
        <ele>69.83</ele>
        <time>2017-09-26T14:05:56Z</time>
      </trkpt>
      <trkpt lat="50.72303" lon="4.09162">
        <ele>68.87</ele>
        <time>2017-09-26T14:06:15Z</time>
      </trkpt>
      <trkpt lat="50.72324" lon="4.0914">
        <ele>66.95</ele>
        <time>2017-09-26T14:06:38Z</time>
      </trkpt>
      <trkpt lat="50.72345" lon="4.09119">
        <ele>65.03</ele>
        <time>2017-09-26T14:06:58Z</time>
      </trkpt>
      <trkpt lat="50.72369" lon="4.09094">
        <ele>65.51</ele>
        <time>2017-09-26T14:07:21Z</time>
      </trkpt>
      <trkpt lat="50.72388" lon="4.09072">
        <ele>64.55</ele>
        <time>2017-09-26T14:07:40Z</time>
      </trkpt>
      <trkpt lat="50.72403" lon="4.09055">
        <ele>65.03</ele>
        <time>2017-09-26T14:07:54Z</time>
      </trkpt>
      <trkpt lat="50.72425" lon="4.09027">
        <ele>65.03</ele>
        <time>2017-09-26T14:08:19Z</time>
      </trkpt>
      <trkpt lat="50.72443" lon="4.09008">
        <ele>65.03</ele>
        <time>2017-09-26T14:08:38Z</time>
      </trkpt>
      <trkpt lat="50.72444" lon="4.08994">
        <ele>65.03</ele>
        <time>2017-09-26T14:08:55Z</time>
      </trkpt>
      <trkpt lat="50.72434" lon="4.08989">
        <ele>64.07</ele>
        <time>2017-09-26T14:09:11Z</time>
      </trkpt>
      <trkpt lat="50.72412" lon="4.09017">
        <ele>63.58</ele>
        <time>2017-09-26T14:09:34Z</time>
      </trkpt>
      <trkpt lat="50.72394" lon="4.09047">
        <ele>63.58</ele>
        <time>2017-09-26T14:09:57Z</time>
      </trkpt>
      <trkpt lat="50.72392" lon="4.09051">
        <ele>63.58</ele>
        <time>2017-09-26T14:09:59Z</time>
      </trkpt>
      <trkpt lat="50.72381" lon="4.09071">
        <ele>65.03</ele>
        <time>2017-09-26T14:10:12Z</time>
      </trkpt>
      <trkpt lat="50.72365" lon="4.09077">
        <ele>63.1</ele>
        <time>2017-09-26T14:10:33Z</time>
      </trkpt>
      <trkpt lat="50.72359" lon="4.09034">
        <ele>61.18</ele>
        <time>2017-09-26T14:10:55Z</time>
      </trkpt>
      <trkpt lat="50.72357" lon="4.0903">
        <ele>61.18</ele>
        <time>2017-09-26T14:10:58Z</time>
      </trkpt>
      <trkpt lat="50.72343" lon="4.09001">
        <ele>60.7</ele>
        <time>2017-09-26T14:11:18Z</time>
      </trkpt>
      <trkpt lat="50.72335" lon="4.08953">
        <ele>60.22</ele>
        <time>2017-09-26T14:11:43Z</time>
      </trkpt>
      <trkpt lat="50.72329" lon="4.08949">
        <ele>60.22</ele>
        <time>2017-09-26T14:11:49Z</time>
      </trkpt>
      <trkpt lat="50.72302" lon="4.0894">
        <ele>61.18</ele>
        <time>2017-09-26T14:12:11Z</time>
      </trkpt>
      <trkpt lat="50.72291" lon="4.08904">
        <ele>61.66</ele>
        <time>2017-09-26T14:12:33Z</time>
      </trkpt>
      <trkpt lat="50.72292" lon="4.08901">
        <ele>60.22</ele>
        <time>2017-09-26T14:12:35Z</time>
      </trkpt>
      <trkpt lat="50.72296" lon="4.08858">
        <ele>58.78</ele>
        <time>2017-09-26T14:12:58Z</time>
      </trkpt>
      <trkpt lat="50.72294" lon="4.08838">
        <ele>58.78</ele>
        <time>2017-09-26T14:13:08Z</time>
      </trkpt>
      <trkpt lat="50.72273" lon="4.08822">
        <ele>58.78</ele>
        <time>2017-09-26T14:13:27Z</time>
      </trkpt>
      <trkpt lat="50.72269" lon="4.08822">
        <ele>60.22</ele>
        <time>2017-09-26T14:13:30Z</time>
      </trkpt>
      <trkpt lat="50.72267" lon="4.08822">
        <ele>60.22</ele>
        <time>2017-09-26T14:13:31Z</time>
      </trkpt>
      <trkpt lat="50.72243" lon="4.08813">
        <ele>60.7</ele>
        <time>2017-09-26T14:13:52Z</time>
      </trkpt>
      <trkpt lat="50.72232" lon="4.08775">
        <ele>59.26</ele>
        <time>2017-09-26T14:14:15Z</time>
      </trkpt>
      <trkpt lat="50.7225" lon="4.08746">
        <ele>57.82</ele>
        <time>2017-09-26T14:14:37Z</time>
      </trkpt>
      <trkpt lat="50.72274" lon="4.08733">
        <ele>56.86</ele>
        <time>2017-09-26T14:14:58Z</time>
      </trkpt>
      <trkpt lat="50.72287" lon="4.0873">
        <ele>58.3</ele>
        <time>2017-09-26T14:15:08Z</time>
      </trkpt>
      <trkpt lat="50.72298" lon="4.08722">
        <ele>58.3</ele>
        <time>2017-09-26T14:15:19Z</time>
      </trkpt>
      <trkpt lat="50.72311" lon="4.08691">
        <ele>59.26</ele>
        <time>2017-09-26T14:15:39Z</time>
      </trkpt>
      <trkpt lat="50.72326" lon="4.08683">
        <ele>59.74</ele>
        <time>2017-09-26T14:16:03Z</time>
      </trkpt>
      <trkpt lat="50.72346" lon="4.08668">
        <ele>62.14</ele>
        <time>2017-09-26T14:16:26Z</time>
      </trkpt>
      <trkpt lat="50.72366" lon="4.08639">
        <ele>63.58</ele>
        <time>2017-09-26T14:16:47Z</time>
      </trkpt>
      <trkpt lat="50.72374" lon="4.08612">
        <ele>64.07</ele>
        <time>2017-09-26T14:17:08Z</time>
      </trkpt>
      <trkpt lat="50.72374" lon="4.08577">
        <ele>64.07</ele>
        <time>2017-09-26T14:17:29Z</time>
      </trkpt>
      <trkpt lat="50.72361" lon="4.0855">
        <ele>64.07</ele>
        <time>2017-09-26T14:17:39Z</time>
      </trkpt>
      <trkpt lat="50.72367" lon="4.08516">
        <ele>64.07</ele>
        <time>2017-09-26T14:17:59Z</time>
      </trkpt>
      <trkpt lat="50.72389" lon="4.08508">
        <ele>64.55</ele>
        <time>2017-09-26T14:18:19Z</time>
      </trkpt>
      <trkpt lat="50.72394" lon="4.08502">
        <ele>64.55</ele>
        <time>2017-09-26T14:18:27Z</time>
      </trkpt>
      <trkpt lat="50.72409" lon="4.08472">
        <ele>65.03</ele>
        <time>2017-09-26T14:18:49Z</time>
      </trkpt>
      <trkpt lat="50.72416" lon="4.08441">
        <ele>61.66</ele>
        <time>2017-09-26T14:19:09Z</time>
      </trkpt>
      <trkpt lat="50.72431" lon="4.08445">
        <ele>62.14</ele>
        <time>2017-09-26T14:19:27Z</time>
      </trkpt>
      <trkpt lat="50.72461" lon="4.08453">
        <ele>63.1</ele>
        <time>2017-09-26T14:19:52Z</time>
      </trkpt>
      <trkpt lat="50.7247" lon="4.08421">
        <ele>62.14</ele>
        <time>2017-09-26T14:20:15Z</time>
      </trkpt>
      <trkpt lat="50.72469" lon="4.08386">
        <ele>60.7</ele>
        <time>2017-09-26T14:20:38Z</time>
      </trkpt>
      <trkpt lat="50.72478" lon="4.08351">
        <ele>60.22</ele>
        <time>2017-09-26T14:20:56Z</time>
      </trkpt>
      <trkpt lat="50.72477" lon="4.08325">
        <ele>58.3</ele>
        <time>2017-09-26T14:21:12Z</time>
      </trkpt>
      <trkpt lat="50.72475" lon="4.08305">
        <ele>58.3</ele>
        <time>2017-09-26T14:21:21Z</time>
      </trkpt>
      <trkpt lat="50.72476" lon="4.083">
        <ele>59.74</ele>
        <time>2017-09-26T14:21:24Z</time>
      </trkpt>
      <trkpt lat="50.72477" lon="4.08272">
        <ele>58.3</ele>
        <time>2017-09-26T14:21:41Z</time>
      </trkpt>
      <trkpt lat="50.72486" lon="4.08257">
        <ele>58.3</ele>
        <time>2017-09-26T14:22:01Z</time>
      </trkpt>
      <trkpt lat="50.72486" lon="4.08258">
        <ele>59.26</ele>
        <time>2017-09-26T14:22:30Z</time>
      </trkpt>
    </trkseg>
  </trk>
</gpx>